Time,TemperatureF,DewpointF,PressureIn,WindDirection,WindDirectionDegrees,WindSpeedMPH,WindSpeedGustMPH,Humidity,HourlyPrecipIn,Conditions,Clouds,dailyrainin,SoftwareType,DateUTC
2013-08-16 00:00:00,60.1,57.8,30.14,NNW,340,0.0,0.0,92,0.00,CLR,,0.00,WeatherDisplay:10.37,2013-08-16 04:00:00,
2013-08-16 00:01:00,60.1,57.8,30.14,NNW,340,0.0,0.0,92,0.00,CLR,,0.00,WeatherDisplay:10.37,2013-08-16 04:01:00,
2013-08-16 00:02:00,60.1,57.8,30.14,NNW,340,0.0,0.0,92,0.00,CLR,,0.00,WeatherDisplay:10.37,2013-08-16 04:02:00,
2013-08-16 00:07:00,60.0,58.0,30.14,NNW,340,0.0,0.0,93,0.00,CLR,,0.00,WeatherDisplay:10.37,2013-08-16 04:07:00,
2013-08-16 00:12:00,60.0,58.0,30.14,NNW,340,0.0,0.0,93,0.00,CLR,,0.00,WeatherDisplay:10.37,2013-08-16 04:12:00,
2013-08-16 00:17:00,59.9,57.9,30.14,NNW,340,0.0,0.0,93,0.00,CLR,,0.00,WeatherDisplay:10.37,2013-08-16 04:17:00,
2013-08-16 00:22:00,59.8,57.8,30.14,NNW,340,0.0,0.0,93,0.00,CLR,,0.00,WeatherDisplay:10.37,2013-08-16 04:22:00,
2013-08-16 00:27:00,59.7,57.7,30.14,NNW,340,0.0,0.0,93,0.00,CLR,,0.00,WeatherDisplay:10.37,2013-08-16 04:27:00,
2013-08-16 00:32:00,59.6,57.6,30.14,NNW,340,0.0,0.0,93,0.00,CLR,,0.00,WeatherDisplay:10.37,2013-08-16 04:32:00,
2013-08-16 00:37:00,59.5,57.2,30.14,NNW,340,0.0,0.0,92,0.00,CLR,,0.00,WeatherDisplay:10.37,2013-08-16 04:37:00,
2013-08-16 00:42:00,59.4,57.4,30.14,NNW,340,0.0,0.0,93,0.00,CLR,,0.00,WeatherDisplay:10.37,2013-08-16 04:42:00,
2013-08-16 00:47:00,59.4,57.4,30.14,NNW,340,0.0,0.0,93,0.00,CLR,,0.00,WeatherDisplay:10.37,2013-08-16 04:47:00,
2013-08-16 00:52:00,59.3,57.3,30.14,NNW,340,0.0,0.0,93,0.00,CLR,,0.00,WeatherDisplay:10.37,2013-08-16 04:52:00,
2013-08-16 00:57:00,59.3,57.3,30.14,NNW,340,0.0,0.0,93,0.00,CLR,,0.00,WeatherDisplay:10.37,2013-08-16 04:57:00,
2013-08-16 01:02:00,59.4,57.7,30.13,NNW,340,0.0,0.0,94,0.00,CLR,,0.00,WeatherDisplay:10.37,2013-08-16 05:02:00,
2013-08-16 01:07:00,59.5,57.8,30.13,NNW,340,0.0,0.0,94,0.00,CLR,,0.00,WeatherDisplay:10.37,2013-08-16 05:07:00,
2013-08-16 01:12:00,59.6,57.9,30.13,NNW,340,0.0,0.0,94,0.00,CLR,,0.00,WeatherDisplay:10.37,2013-08-16 05:12:00,
2013-08-16 01:19:00,59.9,58.2,30.13,NNW,340,0.0,0.0,94,0.00,CLR,,0.00,WeatherDisplay:10.37,2013-08-16 05:19:00,
2013-08-16 01:24:00,59.9,58.2,30.13,NNW,340,0.0,0.0,94,0.00,CLR,,0.00,WeatherDisplay:10.37,2013-08-16 05:24:00,
2013-08-16 01:29:00,60.0,58.3,30.12,NNW,340,0.0,0.0,94,0.00,CLR,,0.00,WeatherDisplay:10.37,2013-08-16 05:29:00,
2013-08-16 01:34:00,59.9,58.2,30.12,NNW,340,0.0,0.0,94,0.00,CLR,,0.00,WeatherDisplay:10.37,2013-08-16 05:34:00,
2013-08-16 01:39:00,60.0,58.6,30.12,NNW,340,0.0,0.0,95,0.00,CLR,,0.00,WeatherDisplay:10.37,2013-08-16 05:39:00,
2013-08-16 01:44:00,60.0,58.6,30.12,NNW,340,0.0,0.0,95,0.00,CLR,,0.00,WeatherDisplay:10.37,2013-08-16 05:44:00,
2013-08-16 01:49:00,60.0,58.6,30.12,NNW,340,0.0,0.0,95,0.00,CLR,,0.00,WeatherDisplay:10.37,2013-08-16 05:49:00,
2013-08-16 01:54:00,60.0,58.6,30.12,NNW,340,0.0,0.0,95,0.00,CLR,,0.00,WeatherDisplay:10.37,2013-08-16 05:54:00,
2013-08-16 01:59:00,60.0,58.6,30.12,NNW,340,0.0,0.0,95,0.00,CLR,,0.00,WeatherDisplay:10.37,2013-08-16 05:59:00,
2013-08-16 02:04:00,60.0,58.6,30.12,NNW,340,0.0,0.0,95,0.00,CLR,,0.00,WeatherDisplay:10.37,2013-08-16 06:04:00,
2013-08-16 02:09:00,59.9,58.5,30.12,NNW,340,0.0,0.0,95,0.00,CLR,,0.00,WeatherDisplay:10.37,2013-08-16 06:09:00,
2013-08-16 02:14:00,59.9,58.5,30.12,NNW,340,0.0,0.0,95,0.00,CLR,,0.00,WeatherDisplay:10.37,2013-08-16 06:14:00,
2013-08-16 02:19:00,59.8,58.4,30.11,NNW,340,0.0,0.0,95,0.00,CLR,,0.00,WeatherDisplay:10.37,2013-08-16 06:19:00,
2013-08-16 02:24:00,59.8,58.4,30.11,NNW,340,0.0,0.0,95,0.00,CLR,,0.00,WeatherDisplay:10.37,2013-08-16 06:24:00,
2013-08-16 02:29:00,59.7,58.3,30.11,NNW,340,0.0,0.0,95,0.00,CLR,,0.00,WeatherDisplay:10.37,2013-08-16 06:29:00,
2013-08-16 02:34:00,59.6,58.2,30.11,NNW,340,0.0,0.0,95,0.00,CLR,,0.00,WeatherDisplay:10.37,2013-08-16 06:34:00,
2013-08-16 02:39:00,59.5,58.1,30.11,NNW,340,0.0,0.0,95,0.00,CLR,,0.00,WeatherDisplay:10.37,2013-08-16 06:39:00,
2013-08-16 02:44:00,59.5,58.1,30.11,NNW,340,0.0,0.0,95,0.00,CLR,,0.00,WeatherDisplay:10.37,2013-08-16 06:44:00,
2013-08-16 02:49:00,59.5,58.1,30.10,NNW,340,0.0,0.0,95,0.00,CLR,,0.00,WeatherDisplay:10.37,2013-08-16 06:49:00,
2013-08-16 02:54:00,59.5,58.1,30.10,NNW,340,0.0,0.0,95,0.00,CLR,,0.00,WeatherDisplay:10.37,2013-08-16 06:54:00,
2013-08-16 02:59:00,59.4,58.0,30.10,NNW,340,0.0,0.0,95,0.00,CLR,,0.00,WeatherDisplay:10.37,2013-08-16 06:59:00,
2013-08-16 03:04:00,59.4,58.0,30.10,NNW,340,0.0,0.0,95,0.00,CLR,,0.00,WeatherDisplay:10.37,2013-08-16 07:04:00,
2013-08-16 03:09:00,59.4,58.0,30.10,NNW,340,0.0,0.0,95,0.00,CLR,,0.00,WeatherDisplay:10.37,2013-08-16 07:09:00,
2013-08-16 03:14:00,59.3,57.9,30.10,NNW,340,0.0,0.0,95,0.00,CLR,,0.00,WeatherDisplay:10.37,2013-08-16 07:14:00,
2013-08-16 03:19:00,59.2,57.8,30.10,NNW,340,0.0,0.0,95,0.00,CLR,,0.00,WeatherDisplay:10.37,2013-08-16 07:19:00,
2013-08-16 03:24:00,59.2,57.8,30.10,NNW,340,0.0,0.0,95,0.00,CLR,,0.00,WeatherDisplay:10.37,2013-08-16 07:24:00,
2013-08-16 03:29:00,59.2,57.8,30.10,NNW,340,0.0,0.0,95,0.00,CLR,,0.00,WeatherDisplay:10.37,2013-08-16 07:29:00,
2013-08-16 03:34:00,59.1,57.7,30.10,NNW,340,0.0,0.0,95,0.00,CLR,,0.00,WeatherDisplay:10.37,2013-08-16 07:34:00,
2013-08-16 03:39:00,59.2,57.8,30.11,NNW,340,0.0,0.0,95,0.00,CLR,,0.00,WeatherDisplay:10.37,2013-08-16 07:39:00,
2013-08-16 03:44:00,59.1,57.7,30.10,NNW,340,0.0,0.0,95,0.00,CLR,,0.00,WeatherDisplay:10.37,2013-08-16 07:44:00,
2013-08-16 03:49:00,59.0,57.6,30.10,NNW,340,0.0,0.0,95,0.00,CLR,,0.00,WeatherDisplay:10.37,2013-08-16 07:49:00,
2013-08-16 03:54:00,59.0,57.6,30.10,NNW,340,0.0,0.0,95,0.00,CLR,,0.00,WeatherDisplay:10.37,2013-08-16 07:54:00,
2013-08-16 03:59:00,59.0,57.6,30.10,NNW,340,0.0,0.0,95,0.00,CLR,,0.00,WeatherDisplay:10.37,2013-08-16 07:59:00,
2013-08-16 04:04:00,59.0,57.6,30.10,NNW,340,0.0,0.0,95,0.00,CLR,,0.00,WeatherDisplay:10.37,2013-08-16 08:04:00,
2013-08-16 04:09:00,59.0,57.6,30.10,NNW,340,0.0,0.0,95,0.00,CLR,,0.00,WeatherDisplay:10.37,2013-08-16 08:09:00,
2013-08-16 04:14:00,59.0,57.6,30.10,NNW,340,0.0,0.0,95,0.00,CLR,,0.00,WeatherDisplay:10.37,2013-08-16 08:14:00,
2013-08-16 04:19:00,59.0,57.6,30.10,NNW,340,0.0,0.0,95,0.00,CLR,,0.00,WeatherDisplay:10.37,2013-08-16 08:19:00,
2013-08-16 04:24:00,59.0,57.6,30.09,NNW,340,0.0,0.0,95,0.00,CLR,,0.00,WeatherDisplay:10.37,2013-08-16 08:24:00,
2013-08-16 04:29:00,59.0,57.6,30.10,NNW,340,0.0,0.0,95,0.00,CLR,,0.00,WeatherDisplay:10.37,2013-08-16 08:29:00,
2013-08-16 04:34:00,59.0,57.6,30.10,NNW,340,0.0,0.0,95,0.00,CLR,,0.00,WeatherDisplay:10.37,2013-08-16 08:34:00,
2013-08-16 04:39:00,59.0,57.6,30.10,NNW,340,0.0,0.0,95,0.00,CLR,,0.00,WeatherDisplay:10.37,2013-08-16 08:39:00,
2013-08-16 04:44:00,59.0,57.6,30.10,NNW,340,0.0,0.0,95,0.00,CLR,,0.00,WeatherDisplay:10.37,2013-08-16 08:44:00,
2013-08-16 04:49:00,59.0,57.6,30.10,NNW,340,0.0,0.0,95,0.00,CLR,,0.00,WeatherDisplay:10.37,2013-08-16 08:49:00,
2013-08-16 04:54:00,58.8,57.1,30.10,NNW,340,0.0,0.0,94,0.00,CLR,,0.00,WeatherDisplay:10.37,2013-08-16 08:54:00,
2013-08-16 04:59:00,58.8,57.1,30.11,NNW,340,0.0,0.0,94,0.00,CLR,,0.00,WeatherDisplay:10.37,2013-08-16 08:59:00,
2013-08-16 05:04:00,58.6,56.9,30.11,NNW,340,0.0,0.0,94,0.00,CLR,,0.00,WeatherDisplay:10.37,2013-08-16 09:04:00,
2013-08-16 05:09:00,58.5,56.8,30.11,NNW,340,0.0,0.0,94,0.00,CLR,,0.00,WeatherDisplay:10.37,2013-08-16 09:09:00,
2013-08-16 05:14:00,58.4,56.7,30.11,NNW,340,0.0,0.0,94,0.00,CLR,,0.00,WeatherDisplay:10.37,2013-08-16 09:14:00,
2013-08-16 05:19:00,58.4,56.7,30.11,NNW,340,0.0,0.0,94,0.00,CLR,,0.00,WeatherDisplay:10.37,2013-08-16 09:19:00,
2013-08-16 05:24:00,58.3,56.6,30.11,NNW,340,0.0,0.0,94,0.00,CLR,,0.00,WeatherDisplay:10.37,2013-08-16 09:24:00,
2013-08-16 05:29:00,58.2,56.5,30.11,NNW,340,0.0,0.0,94,0.00,CLR,,0.00,WeatherDisplay:10.37,2013-08-16 09:29:00,
2013-08-16 05:34:00,58.2,56.5,30.11,NNW,340,0.0,0.0,94,0.00,CLR,,0.00,WeatherDisplay:10.37,2013-08-16 09:34:00,
2013-08-16 05:39:00,58.2,56.5,30.11,NNW,340,0.0,0.0,94,0.00,CLR,,0.00,WeatherDisplay:10.37,2013-08-16 09:39:00,
2013-08-16 05:44:00,58.2,56.8,30.11,NNW,340,0.0,0.0,95,0.00,CLR,,0.00,WeatherDisplay:10.37,2013-08-16 09:44:00,
2013-08-16 05:49:00,58.2,56.8,30.11,NNW,340,0.0,0.0,95,0.00,CLR,,0.00,WeatherDisplay:10.37,2013-08-16 09:49:00,
2013-08-16 05:54:00,58.2,56.8,30.11,NNW,340,0.0,0.0,95,0.00,CLR,,0.00,WeatherDisplay:10.37,2013-08-16 09:54:00,
2013-08-16 05:59:00,58.2,56.8,30.11,NNW,340,0.0,0.0,95,0.00,CLR,,0.00,WeatherDisplay:10.37,2013-08-16 09:59:00,
2013-08-16 06:04:00,58.4,57.0,30.11,NNW,340,0.0,0.0,95,0.00,CLR,,0.00,WeatherDisplay:10.37,2013-08-16 10:04:00,
2013-08-16 06:09:00,58.4,57.0,30.12,NNW,340,0.0,0.0,95,0.00,CLR,,0.00,WeatherDisplay:10.37,2013-08-16 10:09:00,
2013-08-16 06:14:00,58.5,57.1,30.12,NNW,340,0.0,0.0,95,0.00,CLR,,0.00,WeatherDisplay:10.37,2013-08-16 10:14:00,
2013-08-16 06:19:00,58.5,57.1,30.12,NNW,340,0.0,0.0,95,0.00,CLR,,0.00,WeatherDisplay:10.37,2013-08-16 10:19:00,
2013-08-16 06:24:00,58.6,57.2,30.12,NNW,340,0.0,0.0,95,0.00,CLR,,0.00,WeatherDisplay:10.37,2013-08-16 10:24:00,
2013-08-16 06:29:00,58.6,57.2,30.13,NNW,340,0.0,0.0,95,0.00,CLR,,0.00,WeatherDisplay:10.37,2013-08-16 10:29:00,
2013-08-16 06:34:00,58.6,57.2,30.13,NNW,340,0.0,0.0,95,0.00,CLR,,0.00,WeatherDisplay:10.37,2013-08-16 10:34:00,
2013-08-16 06:39:00,58.6,57.2,30.13,NNW,340,0.0,0.0,95,0.00,CLR,,0.00,WeatherDisplay:10.37,2013-08-16 10:39:00,
2013-08-16 06:44:00,58.7,57.3,30.13,NNW,340,0.0,0.0,95,0.00,CLR,,0.00,WeatherDisplay:10.37,2013-08-16 10:44:00,
2013-08-16 06:49:00,58.7,57.3,30.13,NNW,340,0.0,0.0,95,0.00,CLR,,0.00,WeatherDisplay:10.37,2013-08-16 10:49:00,
2013-08-16 06:54:00,58.8,57.4,30.13,NNW,340,0.0,0.0,95,0.00,CLR,,0.00,WeatherDisplay:10.37,2013-08-16 10:54:00,
2013-08-16 06:59:00,58.8,57.4,30.14,NNW,340,0.0,0.0,95,0.00,CLR,,0.00,WeatherDisplay:10.37,2013-08-16 10:59:00,
2013-08-16 07:04:00,58.8,57.4,30.14,SSW,200,0.0,0.0,95,0.00,CLR,,0.00,WeatherDisplay:10.37,2013-08-16 11:04:00,
2013-08-16 07:09:00,58.9,57.5,30.14,NW,317,0.0,0.0,95,0.00,CLR,,0.00,WeatherDisplay:10.37,2013-08-16 11:09:00,
2013-08-16 07:14:00,59.0,57.6,30.14,NW,317,0.0,0.0,95,0.00,CLR,,0.00,WeatherDisplay:10.37,2013-08-16 11:14:00,
2013-08-16 07:19:00,59.0,57.6,30.14,NW,317,0.0,0.0,95,0.00,CLR,,0.00,WeatherDisplay:10.37,2013-08-16 11:19:00,
2013-08-16 07:24:00,59.0,57.6,30.14,NNE,12,2.3,2.3,95,0.00,CLR,,0.00,WeatherDisplay:10.37,2013-08-16 11:24:00,
2013-08-16 07:29:00,59.0,57.6,30.14,North,5,2.3,2.3,95,0.00,CLR,,0.00,WeatherDisplay:10.37,2013-08-16 11:29:00,
2013-08-16 07:34:00,59.0,57.6,30.14,NNE,17,0.0,0.0,95,0.00,CLR,,0.00,WeatherDisplay:10.37,2013-08-16 11:34:00,
2013-08-16 07:39:00,59.0,57.6,30.14,NNE,17,0.0,0.1,95,0.00,CLR,,0.00,WeatherDisplay:10.37,2013-08-16 11:39:00,
2013-08-16 07:44:00,59.0,57.6,30.14,NNE,17,0.0,0.0,95,0.00,CLR,,0.00,WeatherDisplay:10.37,2013-08-16 11:44:00,
2013-08-16 07:49:00,59.0,57.6,30.14,NNE,17,0.0,0.6,95,0.00,CLR,,0.00,WeatherDisplay:10.37,2013-08-16 11:49:00,
2013-08-16 07:54:00,59.0,57.6,30.14,NNE,17,0.0,0.0,95,0.00,CLR,,0.00,WeatherDisplay:10.37,2013-08-16 11:54:00,
2013-08-16 07:59:00,59.0,57.6,30.14,NNE,17,0.0,0.0,95,0.00,CLR,,0.00,WeatherDisplay:10.37,2013-08-16 11:59:00,
2013-08-16 08:04:00,59.2,57.5,30.14,NNE,17,0.0,0.0,94,0.00,CLR,,0.00,WeatherDisplay:10.37,2013-08-16 12:04:00,
2013-08-16 08:09:00,59.4,57.7,30.14,NNE,17,0.0,0.0,94,0.00,CLR,,0.00,WeatherDisplay:10.37,2013-08-16 12:09:00,
2013-08-16 08:14:00,59.5,57.8,30.15,NNE,28,0.0,0.0,94,0.00,CLR,,0.00,WeatherDisplay:10.37,2013-08-16 12:14:00,
2013-08-16 08:19:00,59.5,57.8,30.15,SW,227,0.0,0.0,94,0.00,CLR,,0.00,WeatherDisplay:10.37,2013-08-16 12:19:00,
2013-08-16 08:24:00,59.7,58.0,30.15,South,188,0.0,0.0,94,0.00,CLR,,0.00,WeatherDisplay:10.37,2013-08-16 12:24:00,
2013-08-16 08:29:00,59.8,57.8,30.15,SSE,168,0.0,0.0,93,0.00,CLR,,0.00,WeatherDisplay:10.37,2013-08-16 12:29:00,
2013-08-16 08:34:00,59.9,57.9,30.14,NNE,28,0.0,0.0,93,0.00,CLR,,0.00,WeatherDisplay:10.37,2013-08-16 12:34:00,
2013-08-16 08:39:00,60.0,58.0,30.14,NNE,30,3.0,3.0,93,0.00,CLR,,0.00,WeatherDisplay:10.37,2013-08-16 12:39:00,
2013-08-16 08:44:00,60.1,58.1,30.14,ENE,76,1.2,0.0,93,0.00,CLR,,0.00,WeatherDisplay:10.37,2013-08-16 12:44:00,
2013-08-16 08:49:00,60.2,57.9,30.15,ENE,76,0.0,0.0,92,0.00,CLR,,0.00,WeatherDisplay:10.37,2013-08-16 12:49:00,
2013-08-16 08:54:00,60.2,57.9,30.15,ENE,76,0.0,0.0,92,0.00,CLR,,0.00,WeatherDisplay:10.37,2013-08-16 12:54:00,
2013-08-16 08:59:00,60.3,58.0,30.16,ENE,76,0.0,0.0,92,0.00,CLR,,0.00,WeatherDisplay:10.37,2013-08-16 12:59:00,
2013-08-16 09:04:00,60.4,58.1,30.16,NNE,33,0.0,0.0,92,0.00,CLR,,0.00,WeatherDisplay:10.37,2013-08-16 13:04:00,
2013-08-16 09:09:00,60.5,58.2,30.16,NE,44,0.0,0.0,92,0.00,CLR,,0.00,WeatherDisplay:10.37,2013-08-16 13:09:00,
2013-08-16 09:14:00,60.7,58.1,30.15,NE,45,0.0,0.0,91,0.00,CLR,,0.00,WeatherDisplay:10.37,2013-08-16 13:14:00,
2013-08-16 09:19:00,60.9,58.6,30.15,NE,45,0.0,0.0,92,0.00,CLR,,0.00,WeatherDisplay:10.37,2013-08-16 13:19:00,
2013-08-16 09:24:00,61.0,58.7,30.15,East,85,1.0,1.0,92,0.00,CLR,,0.00,WeatherDisplay:10.37,2013-08-16 13:24:00,
2013-08-16 09:29:00,61.2,58.6,30.16,NE,52,0.0,0.0,91,0.00,CLR,,0.00,WeatherDisplay:10.37,2013-08-16 13:29:00,
2013-08-16 09:34:00,61.3,58.7,30.16,NE,53,0.0,0.0,91,0.00,CLR,,0.00,WeatherDisplay:10.37,2013-08-16 13:34:00,
2013-08-16 09:39:00,61.4,58.4,30.16,SE,125,0.0,0.0,90,0.00,CLR,,0.00,WeatherDisplay:10.37,2013-08-16 13:39:00,
2013-08-16 09:44:00,61.7,58.7,30.16,ENE,63,0.0,0.0,90,0.00,CLR,,0.00,WeatherDisplay:10.37,2013-08-16 13:44:00,
2013-08-16 09:49:00,62.0,58.7,30.15,ENE,61,4.0,4.0,89,0.00,CLR,,0.00,WeatherDisplay:10.37,2013-08-16 13:49:00,
2013-08-16 09:54:00,62.3,59.0,30.16,ENE,63,5.0,5.0,89,0.00,CLR,,0.00,WeatherDisplay:10.37,2013-08-16 13:54:00,
2013-08-16 09:59:00,62.5,59.2,30.16,ENE,59,4.0,4.0,89,0.00,CLR,,0.00,WeatherDisplay:10.37,2013-08-16 13:59:00,
2013-08-16 10:04:00,62.7,59.1,30.16,NE,37,4.0,4.0,88,0.00,CLR,,0.00,WeatherDisplay:10.37,2013-08-16 14:04:00,
2013-08-16 10:09:00,62.9,59.3,30.16,NNE,31,3.5,3.5,88,0.00,CLR,,0.00,WeatherDisplay:10.37,2013-08-16 14:09:00,
2013-08-16 10:14:00,62.9,59.0,30.17,NE,48,4.6,4.6,87,0.00,CLR,,0.00,WeatherDisplay:10.37,2013-08-16 14:14:00,
2013-08-16 10:19:00,63.0,59.1,30.17,ENE,71,1.2,0.0,87,0.00,CLR,,0.00,WeatherDisplay:10.37,2013-08-16 14:19:00,
2013-08-16 10:24:00,63.2,59.3,30.17,ENE,70,3.5,3.5,87,0.00,CLR,,0.00,WeatherDisplay:10.37,2013-08-16 14:24:00,
2013-08-16 10:29:00,63.3,59.4,30.17,NE,42,3.5,3.5,87,0.00,CLR,,0.00,WeatherDisplay:10.37,2013-08-16 14:29:00,
2013-08-16 10:34:00,63.4,59.5,30.17,ENE,63,3.0,3.0,87,0.00,CLR,,0.00,WeatherDisplay:10.37,2013-08-16 14:34:00,
2013-08-16 10:39:00,63.5,59.9,30.17,NE,53,3.5,3.5,88,0.00,CLR,,0.00,WeatherDisplay:10.37,2013-08-16 14:39:00,
2013-08-16 10:44:00,63.6,59.7,30.17,NE,53,4.6,0.0,87,0.00,CLR,,0.00,WeatherDisplay:10.37,2013-08-16 14:44:00,
2013-08-16 10:49:00,63.7,59.8,30.17,NNE,25,3.5,3.5,87,0.00,CLR,,0.00,WeatherDisplay:10.37,2013-08-16 14:49:00,
2013-08-16 10:54:00,63.8,59.9,30.17,NE,40,2.3,2.3,87,0.00,CLR,,0.00,WeatherDisplay:10.37,2013-08-16 14:54:00,
2013-08-16 10:59:00,63.9,60.3,30.16,NE,40,0.0,0.0,88,0.00,CLR,,0.00,WeatherDisplay:10.37,2013-08-16 14:59:00,
2013-08-16 11:04:00,63.9,60.0,30.16,NE,55,3.5,3.5,87,0.00,CLR,,0.00,WeatherDisplay:10.37,2013-08-16 15:04:00,
2013-08-16 11:09:00,63.8,59.9,30.16,NE,56,3.5,3.5,87,0.00,CLR,,0.00,WeatherDisplay:10.37,2013-08-16 15:09:00,
2013-08-16 11:14:00,63.7,59.8,30.15,ENE,65,3.5,3.5,87,0.00,CLR,,0.00,WeatherDisplay:10.37,2013-08-16 15:14:00,
2013-08-16 11:19:00,63.7,60.1,30.17,NE,42,0.0,0.0,88,0.00,CLR,,0.00,WeatherDisplay:10.37,2013-08-16 15:19:00,
2013-08-16 11:24:00,63.7,60.1,30.16,NE,42,0.0,0.0,88,0.00,CLR,,0.00,WeatherDisplay:10.37,2013-08-16 15:24:00,
2013-08-16 11:29:00,63.8,60.5,30.17,NE,42,0.0,0.0,89,0.00,CLR,,0.00,WeatherDisplay:10.37,2013-08-16 15:29:00,
2013-08-16 11:34:00,64.1,61.1,30.17,NE,42,0.0,0.0,90,0.00,CLR,,0.00,WeatherDisplay:10.37,2013-08-16 15:34:00,
2013-08-16 11:39:00,64.3,61.0,30.16,NE,42,0.0,0.0,89,0.00,CLR,,0.00,WeatherDisplay:10.37,2013-08-16 15:39:00,
2013-08-16 11:44:00,64.4,61.1,30.16,NNE,21,4.0,4.0,89,0.00,CLR,,0.00,WeatherDisplay:10.37,2013-08-16 15:44:00,
2013-08-16 11:49:00,64.5,61.2,30.16,NNE,20,0.0,0.0,89,0.00,CLR,,0.00,WeatherDisplay:10.37,2013-08-16 15:49:00,
2013-08-16 11:54:00,64.7,61.1,30.15,NNE,19,4.0,4.0,88,0.00,CLR,,0.00,WeatherDisplay:10.37,2013-08-16 15:54:00,
2013-08-16 11:59:00,64.7,61.1,30.16,NNE,19,3.5,3.5,88,0.00,CLR,,0.00,WeatherDisplay:10.37,2013-08-16 15:59:00,
2013-08-16 12:04:00,64.9,61.6,30.16,NNE,17,0.0,0.0,89,0.00,CLR,,0.00,WeatherDisplay:10.37,2013-08-16 16:04:00,
2013-08-16 12:09:00,65.1,61.5,30.17,NNE,17,0.0,0.0,88,0.00,CLR,,0.00,WeatherDisplay:10.37,2013-08-16 16:09:00,
2013-08-16 12:14:00,65.3,61.7,30.17,NNE,17,2.0,2.0,88,0.00,CLR,,0.00,WeatherDisplay:10.37,2013-08-16 16:14:00,
2013-08-16 12:19:00,65.6,61.3,30.17,NE,52,0.0,0.0,86,0.00,CLR,,0.00,WeatherDisplay:10.37,2013-08-16 16:19:00,
2013-08-16 12:24:00,65.9,61.9,30.17,North,360,3.0,3.0,87,0.00,CLR,,0.00,WeatherDisplay:10.37,2013-08-16 16:24:00,
2013-08-16 12:29:00,66.1,61.5,30.17,NE,42,3.5,3.5,85,0.00,CLR,,0.00,WeatherDisplay:10.37,2013-08-16 16:29:00,
2013-08-16 12:34:00,66.2,61.6,30.16,ENE,69,4.6,4.6,85,0.00,CLR,,0.00,WeatherDisplay:10.37,2013-08-16 16:34:00,
2013-08-16 12:39:00,66.3,62.0,30.16,ENE,66,2.3,0.0,86,0.00,CLR,,0.00,WeatherDisplay:10.37,2013-08-16 16:39:00,
2013-08-16 12:44:00,66.5,62.5,30.16,NE,37,3.5,3.5,87,0.00,CLR,,0.00,WeatherDisplay:10.37,2013-08-16 16:44:00,
2013-08-16 12:49:00,66.6,61.6,30.16,NE,41,5.8,5.8,84,0.00,CLR,,0.00,WeatherDisplay:10.37,2013-08-16 16:49:00,
2013-08-16 12:54:00,66.6,61.6,30.16,NNE,33,0.0,1.5,84,0.00,CLR,,0.00,WeatherDisplay:10.37,2013-08-16 16:54:00,
2013-08-16 12:59:00,66.7,61.7,30.15,ENE,59,4.6,4.6,84,0.00,CLR,,0.00,WeatherDisplay:10.37,2013-08-16 16:59:00,
2013-08-16 13:04:00,66.8,61.8,30.15,NE,52,4.6,4.6,84,0.00,CLR,,0.00,WeatherDisplay:10.37,2013-08-16 17:04:00,
2013-08-16 13:09:00,67.1,62.4,30.16,NNE,29,3.5,3.5,85,0.00,CLR,,0.00,WeatherDisplay:10.37,2013-08-16 17:09:00,
2013-08-16 13:14:00,67.3,62.3,30.16,ENE,78,4.0,4.0,84,0.00,CLR,,0.00,WeatherDisplay:10.37,2013-08-16 17:14:00,
2013-08-16 13:19:00,67.5,62.2,30.15,NE,40,5.8,5.8,83,0.00,CLR,,0.00,WeatherDisplay:10.37,2013-08-16 17:19:00,
2013-08-16 13:24:00,67.7,62.3,30.15,ENE,57,3.5,3.5,83,0.00,CLR,,0.00,WeatherDisplay:10.37,2013-08-16 17:24:00,
2013-08-16 13:29:00,67.9,62.2,30.15,East,90,4.6,4.6,82,0.00,CLR,,0.00,WeatherDisplay:10.37,2013-08-16 17:29:00,
2013-08-16 13:34:00,68.1,62.0,30.15,NE,46,5.8,5.8,81,0.00,CLR,,0.00,WeatherDisplay:10.37,2013-08-16 17:34:00,
2013-08-16 13:39:00,68.3,62.2,30.15,ENE,76,4.6,4.6,81,0.00,CLR,,0.00,WeatherDisplay:10.37,2013-08-16 17:39:00,
2013-08-16 13:44:00,68.4,61.6,30.15,SE,140,5.8,5.8,79,0.00,CLR,,0.00,WeatherDisplay:10.37,2013-08-16 17:44:00,
2013-08-16 13:49:00,68.5,62.1,30.15,NE,36,5.0,5.0,80,0.00,CLR,,0.00,WeatherDisplay:10.37,2013-08-16 17:49:00,
2013-08-16 13:54:00,68.4,62.0,30.14,ENE,70,5.8,5.8,80,0.00,CLR,,0.00,WeatherDisplay:10.37,2013-08-16 17:54:00,
2013-08-16 14:00:00,68.5,62.1,30.14,NE,42,4.6,4.6,80,0.00,CLR,,0.00,WeatherDisplay:10.37,2013-08-16 18:00:00,
2013-08-16 14:05:00,68.5,61.7,30.14,ENE,67,3.5,3.5,79,0.00,CLR,,0.00,WeatherDisplay:10.37,2013-08-16 18:05:00,
2013-08-16 14:10:00,68.4,61.6,30.14,ENE,59,3.5,3.5,79,0.00,CLR,,0.00,WeatherDisplay:10.37,2013-08-16 18:10:00,
2013-08-16 14:15:00,68.5,61.7,30.14,ENE,60,4.6,4.6,79,0.00,CLR,,0.00,WeatherDisplay:10.37,2013-08-16 18:15:00,
2013-08-16 14:20:00,68.6,61.8,30.14,SSE,161,0.0,0.0,79,0.00,CLR,,0.00,WeatherDisplay:10.37,2013-08-16 18:20:00,
2013-08-16 14:25:00,68.9,61.8,30.14,ESE,111,2.0,2.1,78,0.00,CLR,,0.00,WeatherDisplay:10.37,2013-08-16 18:25:00,
2013-08-16 14:30:00,69.0,62.2,30.14,ENE,73,3.5,0.0,79,0.00,CLR,,0.00,WeatherDisplay:10.37,2013-08-16 18:30:00,
2013-08-16 14:35:00,69.0,62.2,30.14,East,87,2.0,2.0,79,0.00,CLR,,0.00,WeatherDisplay:10.37,2013-08-16 18:35:00,
2013-08-16 14:40:00,69.0,61.9,30.14,East,95,0.0,0.0,78,0.00,CLR,,0.00,WeatherDisplay:10.37,2013-08-16 18:40:00,
2013-08-16 14:45:00,69.0,61.1,30.14,SSE,148,4.6,4.6,76,0.00,CLR,,0.00,WeatherDisplay:10.37,2013-08-16 18:45:00,
2013-08-16 14:50:00,69.0,60.7,30.14,ESE,108,2.3,2.3,75,0.00,CLR,,0.00,WeatherDisplay:10.37,2013-08-16 18:50:00,
2013-08-16 14:55:00,69.0,60.7,30.13,East,101,4.6,4.6,75,0.00,CLR,,0.00,WeatherDisplay:10.37,2013-08-16 18:55:00,
2013-08-16 15:00:00,69.2,61.3,30.13,ENE,69,6.0,6.0,76,0.00,CLR,,0.00,WeatherDisplay:10.37,2013-08-16 19:00:00,
2013-08-16 15:05:00,69.4,60.8,30.13,ENE,57,7.0,7.0,74,0.00,CLR,,0.00,WeatherDisplay:10.37,2013-08-16 19:05:00,
2013-08-16 15:10:00,69.8,61.1,30.13,NE,36,10.0,10.0,74,0.00,CLR,,0.00,WeatherDisplay:10.37,2013-08-16 19:10:00,
2013-08-16 15:15:00,69.8,60.8,30.12,East,83,3.5,3.5,73,0.00,CLR,,0.00,WeatherDisplay:10.37,2013-08-16 19:15:00,
2013-08-16 15:20:00,69.8,60.4,30.12,NE,41,8.0,8.0,72,0.00,CLR,,0.00,WeatherDisplay:10.37,2013-08-16 19:20:00,
2013-08-16 15:25:00,69.8,61.1,30.12,North,9,5.0,5.0,74,0.00,CLR,,0.00,WeatherDisplay:10.37,2013-08-16 19:25:00,
2013-08-16 15:30:00,70.3,62.0,30.12,NNE,26,4.6,4.6,75,0.00,CLR,,0.00,WeatherDisplay:10.37,2013-08-16 19:30:00,
2013-08-16 15:35:00,70.8,60.9,30.12,NE,55,3.5,4.8,71,0.00,CLR,,0.00,WeatherDisplay:10.37,2013-08-16 19:35:00,
2013-08-16 15:40:00,71.0,60.3,30.11,NE,36,10.4,10.4,69,0.00,CLR,,0.00,WeatherDisplay:10.37,2013-08-16 19:40:00,
2013-08-16 15:45:00,71.2,61.3,30.12,SSE,165,5.8,5.8,71,0.00,CLR,,0.00,WeatherDisplay:10.37,2013-08-16 19:45:00,
2013-08-16 15:50:00,71.2,60.1,30.11,NE,41,9.2,9.2,68,0.00,CLR,,0.00,WeatherDisplay:10.37,2013-08-16 19:50:00,
2013-08-16 15:55:00,71.2,60.5,30.11,NNE,32,6.0,6.0,69,0.00,CLR,,0.00,WeatherDisplay:10.37,2013-08-16 19:55:00,
2013-08-16 16:00:00,71.4,60.3,30.11,SSE,160,6.9,6.9,68,0.00,CLR,,0.00,WeatherDisplay:10.37,2013-08-16 20:00:00,
2013-08-16 16:05:00,71.6,60.5,30.11,NNE,18,6.9,6.9,68,0.00,CLR,,0.00,WeatherDisplay:10.37,2013-08-16 20:05:00,
2013-08-16 16:10:00,71.6,60.1,30.11,ENE,66,1.2,0.0,67,0.00,CLR,,0.00,WeatherDisplay:10.37,2013-08-16 20:10:00,
2013-08-16 16:15:00,71.5,59.5,30.11,NE,36,11.0,11.0,66,0.00,CLR,,0.00,WeatherDisplay:10.37,2013-08-16 20:15:00,
2013-08-16 16:20:00,71.5,60.0,30.12,East,92,2.0,2.0,67,0.00,CLR,,0.00,WeatherDisplay:10.37,2013-08-16 20:20:00,
2013-08-16 16:25:00,71.6,60.5,30.11,East,94,4.0,4.0,68,0.00,CLR,,0.00,WeatherDisplay:10.37,2013-08-16 20:25:00,
2013-08-16 16:30:00,71.5,60.8,30.11,ENE,59,10.4,10.4,69,0.00,CLR,,0.00,WeatherDisplay:10.37,2013-08-16 20:30:00,
2013-08-16 16:35:00,71.5,60.8,30.12,NE,34,4.6,4.6,69,0.00,CLR,,0.00,WeatherDisplay:10.37,2013-08-16 20:35:00,
2013-08-16 16:40:00,71.4,60.7,30.12,ENE,61,10.4,10.4,69,0.00,CLR,,0.00,WeatherDisplay:10.37,2013-08-16 20:40:00,
2013-08-16 16:45:00,71.3,61.4,30.12,ENE,66,5.8,5.8,71,0.00,CLR,,0.00,WeatherDisplay:10.37,2013-08-16 20:45:00,
2013-08-16 16:50:00,71.2,60.9,30.12,ENE,57,2.3,0.0,70,0.00,CLR,,0.00,WeatherDisplay:10.37,2013-08-16 20:50:00,
2013-08-16 16:55:00,71.1,60.4,30.12,ENE,57,3.5,3.5,69,0.00,CLR,,0.00,WeatherDisplay:10.37,2013-08-16 20:55:00,
2013-08-16 17:00:00,71.0,61.1,30.11,ENE,61,3.5,3.5,71,0.00,CLR,,0.00,WeatherDisplay:10.37,2013-08-16 21:00:00,
2013-08-16 17:05:00,71.2,61.7,30.11,NE,35,4.6,4.6,72,0.00,CLR,,0.00,WeatherDisplay:10.37,2013-08-16 21:05:00,
2013-08-16 17:10:00,71.3,61.8,30.11,ENE,58,5.8,5.8,72,0.00,CLR,,0.00,WeatherDisplay:10.37,2013-08-16 21:10:00,
2013-08-16 17:15:00,71.2,61.7,30.11,NE,41,4.6,4.6,72,0.00,CLR,,0.00,WeatherDisplay:10.37,2013-08-16 21:15:00,
2013-08-16 17:20:00,71.2,61.3,30.12,ENE,70,3.5,3.5,71,0.00,CLR,,0.00,WeatherDisplay:10.37,2013-08-16 21:20:00,
2013-08-16 17:25:00,71.1,61.6,30.12,ENE,61,3.5,3.5,72,0.00,CLR,,0.00,WeatherDisplay:10.37,2013-08-16 21:25:00,
2013-08-16 17:30:00,71.0,61.1,30.11,NE,51,3.5,3.5,71,0.00,CLR,,0.00,WeatherDisplay:10.37,2013-08-16 21:30:00,
2013-08-16 17:35:00,71.0,61.9,30.11,East,84,4.0,4.0,73,0.00,CLR,,0.00,WeatherDisplay:10.37,2013-08-16 21:35:00,
2013-08-16 17:40:00,71.0,61.1,30.12,ENE,57,3.5,3.5,71,0.00,CLR,,0.00,WeatherDisplay:10.37,2013-08-16 21:40:00,
2013-08-16 17:45:00,71.0,61.5,30.12,ENE,71,4.6,4.6,72,0.00,CLR,,0.00,WeatherDisplay:10.37,2013-08-16 21:45:00,
2013-08-16 17:50:00,70.9,61.4,30.12,NE,46,3.5,3.5,72,0.00,CLR,,0.00,WeatherDisplay:10.37,2013-08-16 21:50:00,
2013-08-16 17:55:00,70.9,61.8,30.12,ENE,58,4.0,4.0,73,0.00,CLR,,0.00,WeatherDisplay:10.37,2013-08-16 21:55:00,
2013-08-16 18:00:00,70.7,61.2,30.12,East,84,3.5,3.5,72,0.00,CLR,,0.00,WeatherDisplay:10.37,2013-08-16 22:00:00,
2013-08-16 18:05:00,70.5,61.4,30.12,NE,45,4.6,4.6,73,0.00,CLR,,0.00,WeatherDisplay:10.37,2013-08-16 22:05:00,
2013-08-16 18:10:00,70.3,61.2,30.11,NE,43,5.0,5.0,73,0.00,CLR,,0.00,WeatherDisplay:10.37,2013-08-16 22:10:00,
2013-08-16 18:15:00,70.2,61.5,30.11,ENE,62,4.6,4.6,74,0.00,CLR,,0.00,WeatherDisplay:10.37,2013-08-16 22:15:00,
2013-08-16 18:20:00,70.1,61.8,30.11,ENE,62,0.0,0.0,75,0.00,CLR,,0.00,WeatherDisplay:10.37,2013-08-16 22:20:00,
2013-08-16 18:25:00,70.2,61.9,30.11,ENE,63,0.0,0.0,75,0.00,CLR,,0.00,WeatherDisplay:10.37,2013-08-16 22:25:00,
2013-08-16 18:30:00,70.2,61.9,30.11,ENE,69,3.5,3.5,75,0.00,CLR,,0.00,WeatherDisplay:10.37,2013-08-16 22:30:00,
2013-08-16 18:35:00,70.4,62.5,30.11,East,90,3.5,3.5,76,0.00,CLR,,0.00,WeatherDisplay:10.37,2013-08-16 22:35:00,
2013-08-16 18:40:00,70.4,61.7,30.10,East,87,4.6,4.6,74,0.00,CLR,,0.00,WeatherDisplay:10.37,2013-08-16 22:40:00,
2013-08-16 18:45:00,70.4,61.7,30.11,East,80,6.9,6.9,74,0.00,CLR,,0.00,WeatherDisplay:10.37,2013-08-16 22:45:00,
2013-08-16 18:50:00,70.4,61.7,30.10,ENE,70,4.6,4.6,74,0.00,CLR,,0.00,WeatherDisplay:10.37,2013-08-16 22:50:00,
2013-08-16 18:55:00,70.2,61.9,30.10,ENE,69,4.0,4.0,75,0.00,CLR,,0.00,WeatherDisplay:10.37,2013-08-16 22:55:00,
2013-08-16 19:01:00,70.1,61.8,30.10,East,94,3.5,0.0,75,0.00,CLR,,0.00,WeatherDisplay:10.37,2013-08-16 23:01:00,
2013-08-16 19:06:00,69.9,61.6,30.10,ENE,65,4.6,4.6,75,0.00,CLR,,0.00,WeatherDisplay:10.37,2013-08-16 23:06:00,
2013-08-16 19:11:00,69.7,61.4,30.10,ENE,76,6.9,6.9,75,0.00,CLR,,0.00,WeatherDisplay:10.37,2013-08-16 23:11:00,
2013-08-16 19:16:00,69.5,61.2,30.11,NNE,15,0.0,0.0,75,0.00,CLR,,0.00,WeatherDisplay:10.37,2013-08-16 23:16:00,
2013-08-16 19:21:00,69.4,61.5,30.11,ENE,60,0.0,0.0,76,0.00,CLR,,0.00,WeatherDisplay:10.37,2013-08-16 23:21:00,
2013-08-16 19:26:00,69.2,61.7,30.11,NE,56,0.0,0.0,77,0.00,CLR,,0.00,WeatherDisplay:10.37,2013-08-16 23:26:00,
2013-08-16 19:31:00,69.1,61.6,30.12,NE,51,0.0,0.0,77,0.00,CLR,,0.00,WeatherDisplay:10.37,2013-08-16 23:31:00,
2013-08-16 19:36:00,68.9,61.4,30.12,ENE,63,2.3,2.3,77,0.00,CLR,,0.00,WeatherDisplay:10.37,2013-08-16 23:36:00,
2013-08-16 19:41:00,68.8,61.3,30.12,NE,35,0.0,0.0,77,0.00,CLR,,0.00,WeatherDisplay:10.37,2013-08-16 23:41:00,
2013-08-16 19:46:00,68.7,61.9,30.12,NE,37,0.0,0.0,79,0.00,CLR,,0.00,WeatherDisplay:10.37,2013-08-16 23:46:00,
2013-08-16 19:51:00,68.5,61.7,30.12,NE,42,0.0,0.0,79,0.00,CLR,,0.00,WeatherDisplay:10.37,2013-08-16 23:51:00,
2013-08-16 19:56:00,68.4,61.6,30.12,NNE,25,0.0,0.0,79,0.00,CLR,,0.00,WeatherDisplay:10.37,2013-08-16 23:56:00,
2013-08-16 20:01:00,68.1,61.7,30.12,North,360,0.0,0.0,80,0.00,CLR,,0.00,WeatherDisplay:10.37,2013-08-17 00:01:00,
2013-08-16 20:06:00,67.9,61.9,30.12,North,360,0.0,0.0,81,0.00,CLR,,0.00,WeatherDisplay:10.37,2013-08-17 00:06:00,
2013-08-16 20:11:00,67.5,61.8,30.12,ESE,112,0.0,0.0,82,0.00,CLR,,0.00,WeatherDisplay:10.37,2013-08-17 00:11:00,
2013-08-16 20:16:00,67.1,61.4,30.13,ESE,112,0.0,0.0,82,0.00,CLR,,0.00,WeatherDisplay:10.37,2013-08-17 00:16:00,
2013-08-16 20:21:00,66.8,61.5,30.13,ESE,112,0.0,0.0,83,0.00,CLR,,0.00,WeatherDisplay:10.37,2013-08-17 00:21:00,
2013-08-16 20:26:00,66.5,61.2,30.14,ESE,112,0.0,0.0,83,0.00,CLR,,0.00,WeatherDisplay:10.37,2013-08-17 00:26:00,
2013-08-16 20:31:00,66.3,61.0,30.14,ESE,111,0.0,0.0,83,0.00,CLR,,0.00,WeatherDisplay:10.37,2013-08-17 00:31:00,
2013-08-16 20:36:00,66.1,60.8,30.14,ESE,112,0.0,0.0,83,0.00,CLR,,0.00,WeatherDisplay:10.37,2013-08-17 00:36:00,
2013-08-16 20:41:00,65.8,60.8,30.14,ESE,111,0.0,0.0,84,0.00,CLR,,0.00,WeatherDisplay:10.37,2013-08-17 00:41:00,
2013-08-16 20:46:00,65.4,60.8,30.14,ESE,111,0.0,0.0,85,0.00,CLR,,0.00,WeatherDisplay:10.37,2013-08-17 00:46:00,
2013-08-16 20:51:00,65.1,60.8,30.15,ESE,112,0.0,0.0,86,0.00,CLR,,0.00,WeatherDisplay:10.37,2013-08-17 00:51:00,
2013-08-16 20:56:00,64.8,60.5,30.15,ESE,111,0.0,0.0,86,0.00,CLR,,0.00,WeatherDisplay:10.37,2013-08-17 00:56:00,
2013-08-16 21:01:00,64.5,60.5,30.15,ESE,112,0.0,0.0,87,0.00,CLR,,0.00,WeatherDisplay:10.37,2013-08-17 01:01:00,
2013-08-16 21:06:00,64.2,60.2,30.15,ESE,112,0.0,0.0,87,0.00,CLR,,0.00,WeatherDisplay:10.37,2013-08-17 01:06:00,
2013-08-16 21:11:00,64.0,60.4,30.15,ESE,112,0.0,0.0,88,0.00,CLR,,0.00,WeatherDisplay:10.37,2013-08-17 01:11:00,
2013-08-16 21:16:00,63.7,60.1,30.16,ESE,111,0.0,0.0,88,0.00,CLR,,0.00,WeatherDisplay:10.37,2013-08-17 01:16:00,
2013-08-16 21:21:00,63.4,60.1,30.16,ESE,112,0.0,0.0,89,0.00,CLR,,0.00,WeatherDisplay:10.37,2013-08-17 01:21:00,
2013-08-16 21:26:00,63.2,59.9,30.16,ESE,112,0.0,0.0,89,0.00,CLR,,0.00,WeatherDisplay:10.37,2013-08-17 01:26:00,
2013-08-16 21:31:00,63.0,59.7,30.16,ESE,112,0.0,0.0,89,0.00,CLR,,0.00,WeatherDisplay:10.37,2013-08-17 01:31:00,
2013-08-16 21:36:00,62.9,59.6,30.16,ESE,112,0.0,0.0,89,0.00,CLR,,0.00,WeatherDisplay:10.37,2013-08-17 01:36:00,
2013-08-16 21:41:00,62.7,59.4,30.17,ESE,111,0.0,0.0,89,0.00,CLR,,0.00,WeatherDisplay:10.37,2013-08-17 01:41:00,
2013-08-16 21:48:00,62.5,59.5,30.16,ESE,112,0.0,0.0,90,0.00,CLR,,0.00,WeatherDisplay:10.37,2013-08-17 01:48:00,
2013-08-16 21:57:00,62.3,59.3,30.17,ESE,112,0.0,0.0,90,0.00,CLR,,0.00,WeatherDisplay:10.37,2013-08-17 01:57:00,
2013-08-16 22:02:00,62.3,59.3,30.17,ESE,111,0.0,0.0,90,0.00,CLR,,0.00,WeatherDisplay:10.37,2013-08-17 02:02:00,
2013-08-16 22:07:00,62.3,59.3,30.17,ESE,112,0.0,0.0,90,0.00,CLR,,0.00,WeatherDisplay:10.37,2013-08-17 02:07:00,
2013-08-16 22:12:00,62.3,59.3,30.17,ESE,112,0.0,0.0,90,0.00,CLR,,0.00,WeatherDisplay:10.37,2013-08-17 02:12:00,
2013-08-16 22:17:00,62.4,59.4,30.17,ESE,111,0.0,0.0,90,0.00,CLR,,0.00,WeatherDisplay:10.37,2013-08-17 02:17:00,
2013-08-16 22:22:00,62.4,59.4,30.17,ESE,112,0.0,0.0,90,0.00,CLR,,0.00,WeatherDisplay:10.37,2013-08-17 02:22:00,
2013-08-16 22:27:00,62.4,59.4,30.17,ESE,112,0.0,0.0,90,0.00,CLR,,0.00,WeatherDisplay:10.37,2013-08-17 02:27:00,
2013-08-16 22:32:00,62.4,59.4,30.17,ESE,112,0.0,0.0,90,0.00,CLR,,0.00,WeatherDisplay:10.37,2013-08-17 02:32:00,
2013-08-16 22:37:00,62.4,59.1,30.17,ESE,111,0.0,0.0,89,0.00,CLR,,0.00,WeatherDisplay:10.37,2013-08-17 02:37:00,
2013-08-16 22:42:00,62.4,59.4,30.17,ESE,112,0.0,0.0,90,0.00,CLR,,0.00,WeatherDisplay:10.37,2013-08-17 02:42:00,
2013-08-16 22:47:00,62.4,59.4,30.17,ESE,112,0.0,0.0,90,0.00,CLR,,0.00,WeatherDisplay:10.37,2013-08-17 02:47:00,
2013-08-16 22:52:00,62.4,59.1,30.17,ESE,111,0.0,0.0,89,0.00,CLR,,0.00,WeatherDisplay:10.37,2013-08-17 02:52:00,
2013-08-16 22:57:00,62.3,59.0,30.17,ESE,111,0.0,0.0,89,0.00,CLR,,0.00,WeatherDisplay:10.37,2013-08-17 02:57:00,
2013-08-16 23:02:00,62.3,59.3,30.17,ESE,111,0.0,0.0,90,0.00,CLR,,0.00,WeatherDisplay:10.37,2013-08-17 03:02:00,
2013-08-16 23:07:00,62.2,59.2,30.17,ESE,112,0.0,0.0,90,0.00,CLR,,0.00,WeatherDisplay:10.37,2013-08-17 03:07:00,
2013-08-16 23:12:00,62.2,59.2,30.17,ESE,112,0.0,0.0,90,0.00,CLR,,0.00,WeatherDisplay:10.37,2013-08-17 03:12:00,
2013-08-16 23:17:00,62.1,59.1,30.17,ESE,112,0.0,0.0,90,0.00,CLR,,0.00,WeatherDisplay:10.37,2013-08-17 03:17:00,
2013-08-16 23:22:00,62.1,59.1,30.17,ESE,112,0.0,0.0,90,0.00,CLR,,0.00,WeatherDisplay:10.37,2013-08-17 03:22:00,
2013-08-16 23:27:00,62.0,59.0,30.18,ESE,112,0.0,0.0,90,0.00,CLR,,0.00,WeatherDisplay:10.37,2013-08-17 03:27:00,
2013-08-16 23:32:00,61.9,58.9,30.18,ESE,111,0.0,0.0,90,0.00,CLR,,0.00,WeatherDisplay:10.37,2013-08-17 03:32:00,
2013-08-16 23:37:00,61.8,58.8,30.17,ESE,111,0.0,0.0,90,0.00,CLR,,0.00,WeatherDisplay:10.37,2013-08-17 03:37:00,
2013-08-16 23:42:00,61.7,58.7,30.18,ESE,112,0.0,0.0,90,0.00,CLR,,0.00,WeatherDisplay:10.37,2013-08-17 03:42:00,
2013-08-16 23:47:00,61.6,58.6,30.18,ESE,112,0.0,0.0,90,0.00,CLR,,0.00,WeatherDisplay:10.37,2013-08-17 03:47:00,
2013-08-16 23:52:00,61.4,58.4,30.17,ESE,112,0.0,0.0,90,0.00,CLR,,0.00,WeatherDisplay:10.37,2013-08-17 03:52:00,
2013-08-16 23:57:00,61.3,58.3,30.18,ESE,112,0.0,0.0,90,0.00,CLR,,0.00,WeatherDisplay:10.37,2013-08-17 03:57:00,